sensor_id;sensor_type;location;lat;lon;timestamp;P1;durP1;ratioP1;P2;durP2;ratioP2
76131;SDS011;64877;50.994;13.650;2023-03-01T00:00:10;25.75;;;13.13;;
76131;SDS011;64877;50.994;13.650;2023-03-01T00:02:36;21.38;;;11.55;;
76131;SDS011;64877;50.994;13.650;2023-03-01T00:05:01;28.08;;;13.73;;
76131;SDS011;64877;50.994;13.650;2023-03-01T00:07:27;23.88;;;13.32;;
76131;SDS011;64877;50.994;13.650;2023-03-01T00:09:52;23.55;;;13.35;;
76131;SDS011;64877;50.994;13.650;2023-03-01T00:12:19;22.67;;;13.40;;
76131;SDS011;64877;50.994;13.650;2023-03-01T00:14:44;26.45;;;12.90;;
76131;SDS011;64877;50.994;13.650;2023-03-01T00:17:10;22.90;;;13.02;;
76131;SDS011;64877;50.994;13.650;2023-03-01T00:19:35;24.63;;;12.68;;
76131;SDS011;64877;50.994;13.650;2023-03-01T00:22:01;23.63;;;13.05;;
76131;SDS011;64877;50.994;13.650;2023-03-01T00:24:26;28.17;;;13.65;;
76131;SDS011;64877;50.994;13.650;2023-03-01T00:26:55;26.63;;;14.07;;
76131;SDS011;64877;50.994;13.650;2023-03-01T00:29:22;27.98;;;14.15;;
76131;SDS011;64877;50.994;13.650;2023-03-01T00:31:48;25.50;;;13.18;;
76131;SDS011;64877;50.994;13.650;2023-03-01T00:34:14;24.20;;;13.73;;
76131;SDS011;64877;50.994;13.650;2023-03-01T00:36:39;27.05;;;13.50;;
76131;SDS011;64877;50.994;13.650;2023-03-01T00:39:05;26.42;;;13.85;;
76131;SDS011;64877;50.994;13.650;2023-03-01T00:41:35;28.38;;;13.27;;
76131;SDS011;64877;50.994;13.650;2023-03-01T00:44:00;20.80;;;11.15;;
76131;SDS011;64877;50.994;13.650;2023-03-01T00:46:26;25.40;;;12.93;;
76131;SDS011;64877;50.994;13.650;2023-03-01T00:48:52;26.92;;;12.98;;
76131;SDS011;64877;50.994;13.650;2023-03-01T00:51:20;26.02;;;13.38;;
76131;SDS011;64877;50.994;13.650;2023-03-01T00:53:49;22.90;;;13.30;;
76131;SDS011;64877;50.994;13.650;2023-03-01T00:56:16;26.50;;;14.02;;
76131;SDS011;64877;50.994;13.650;2023-03-01T00:58:41;25.00;;;13.35;;
76131;SDS011;64877;50.994;13.650;2023-03-01T01:01:11;24.15;;;12.93;;
76131;SDS011;64877;50.994;13.650;2023-03-01T01:06:15;26.80;;;14.52;;
76131;SDS011;64877;50.994;13.650;2023-03-01T01:08:49;26.25;;;13.50;;
76131;SDS011;64877;50.994;13.650;2023-03-01T01:11:15;26.65;;;14.40;;
76131;SDS011;64877;50.994;13.650;2023-03-01T01:13:41;27.40;;;14.18;;
76131;SDS011;64877;50.994;13.650;2023-03-01T01:16:08;26.00;;;13.35;;
76131;SDS011;64877;50.994;13.650;2023-03-01T01:18:34;32.00;;;13.93;;
76131;SDS011;64877;50.994;13.650;2023-03-01T01:21:03;26.65;;;14.05;;
76131;SDS011;64877;50.994;13.650;2023-03-01T01:23:33;24.90;;;14.02;;
76131;SDS011;64877;50.994;13.650;2023-03-01T01:26:18;21.77;;;12.43;;
76131;SDS011;64877;50.994;13.650;2023-03-01T01:28:44;23.02;;;13.23;;
76131;SDS011;64877;50.994;13.650;2023-03-01T01:31:10;25.85;;;14.13;;
76131;SDS011;64877;50.994;13.650;2023-03-01T01:33:36;26.55;;;12.23;;
76131;SDS011;64877;50.994;13.650;2023-03-01T01:36:02;21.88;;;11.82;;
76131;SDS011;64877;50.994;13.650;2023-03-01T01:38:29;24.40;;;12.07;;
76131;SDS011;64877;50.994;13.650;2023-03-01T01:40:54;26.67;;;12.20;;
76131;SDS011;64877;50.994;13.650;2023-03-01T01:43:24;25.80;;;12.82;;
76131;SDS011;64877;50.994;13.650;2023-03-01T01:45:54;21.95;;;12.07;;
76131;SDS011;64877;50.994;13.650;2023-03-01T01:48:39;26.80;;;13.02;;
76131;SDS011;64877;50.994;13.650;2023-03-01T01:51:13;21.10;;;12.55;;
76131;SDS011;64877;50.994;13.650;2023-03-01T01:53:41;26.42;;;13.27;;
76131;SDS011;64877;50.994;13.650;2023-03-01T01:58:36;21.88;;;12.13;;
76131;SDS011;64877;50.994;13.650;2023-03-01T02:01:03;23.00;;;12.52;;
76131;SDS011;64877;50.994;13.650;2023-03-01T02:03:30;22.70;;;11.60;;
76131;SDS011;64877;50.994;13.650;2023-03-01T02:08:53;20.73;;;11.88;;
76131;SDS011;64877;50.994;13.650;2023-03-01T02:11:22;28.13;;;13.35;;
76131;SDS011;64877;50.994;13.650;2023-03-01T02:13:48;27.02;;;14.50;;
76131;SDS011;64877;50.994;13.650;2023-03-01T02:16:15;34.35;;;14.18;;
76131;SDS011;64877;50.994;13.650;2023-03-01T02:18:41;26.80;;;14.10;;
76131;SDS011;64877;50.994;13.650;2023-03-01T02:21:12;26.50;;;13.52;;
76131;SDS011;64877;50.994;13.650;2023-03-01T02:24:03;27.27;;;13.10;;
76131;SDS011;64877;50.994;13.650;2023-03-01T02:26:38;25.33;;;13.05;;
76131;SDS011;64877;50.994;13.650;2023-03-01T02:29:05;19.63;;;11.20;;
76131;SDS011;64877;50.994;13.650;2023-03-01T02:31:31;23.83;;;11.98;;
76131;SDS011;64877;50.994;13.650;2023-03-01T02:34:17;28.48;;;11.00;;
76131;SDS011;64877;50.994;13.650;2023-03-01T02:36:47;21.60;;;10.68;;
76131;SDS011;64877;50.994;13.650;2023-03-01T02:39:21;21.65;;;13.00;;
76131;SDS011;64877;50.994;13.650;2023-03-01T02:41:53;22.13;;;11.10;;
76131;SDS011;64877;50.994;13.650;2023-03-01T02:44:21;20.38;;;10.73;;
76131;SDS011;64877;50.994;13.650;2023-03-01T02:46:48;20.15;;;10.75;;
76131;SDS011;64877;50.994;13.650;2023-03-01T02:49:35;23.35;;;11.07;;
76131;SDS011;64877;50.994;13.650;2023-03-01T02:57:31;20.45;;;11.50;;
76131;SDS011;64877;50.994;13.650;2023-03-01T03:00:02;22.88;;;11.60;;
76131;SDS011;64877;50.994;13.650;2023-03-01T03:02:32;20.75;;;11.13;;
76131;SDS011;64877;50.994;13.650;2023-03-01T03:05:04;23.23;;;12.55;;
76131;SDS011;64877;50.994;13.650;2023-03-01T03:07:36;21.58;;;12.60;;
76131;SDS011;64877;50.994;13.650;2023-03-01T03:10:04;23.77;;;13.13;;
76131;SDS011;64877;50.994;13.650;2023-03-01T03:12:32;21.65;;;11.80;;
76131;SDS011;64877;50.994;13.650;2023-03-01T03:14:58;25.60;;;12.38;;
76131;SDS011;64877;50.994;13.650;2023-03-01T03:17:23;21.55;;;12.82;;
76131;SDS011;64877;50.994;13.650;2023-03-01T03:19:49;19.42;;;11.82;;
76131;SDS011;64877;50.994;13.650;2023-03-01T03:22:15;25.10;;;12.90;;
76131;SDS011;64877;50.994;13.650;2023-03-01T03:24:41;28.17;;;14.25;;
76131;SDS011;64877;50.994;13.650;2023-03-01T03:27:07;25.48;;;13.00;;
76131;SDS011;64877;50.994;13.650;2023-03-01T03:29:33;29.58;;;13.20;;
76131;SDS011;64877;50.994;13.650;2023-03-01T03:31:58;26.45;;;13.95;;
76131;SDS011;64877;50.994;13.650;2023-03-01T03:34:24;23.63;;;12.70;;
76131;SDS011;64877;50.994;13.650;2023-03-01T03:36:53;26.20;;;13.52;;
76131;SDS011;64877;50.994;13.650;2023-03-01T03:39:27;23.65;;;12.57;;
76131;SDS011;64877;50.994;13.650;2023-03-01T03:41:53;22.45;;;11.98;;
76131;SDS011;64877;50.994;13.650;2023-03-01T03:44:20;21.20;;;11.10;;
76131;SDS011;64877;50.994;13.650;2023-03-01T03:46:46;23.00;;;12.18;;
76131;SDS011;64877;50.994;13.650;2023-03-01T03:49:11;22.90;;;12.73;;
76131;SDS011;64877;50.994;13.650;2023-03-01T03:51:37;26.60;;;11.75;;
76131;SDS011;64877;50.994;13.650;2023-03-01T03:54:02;23.17;;;12.68;;
76131;SDS011;64877;50.994;13.650;2023-03-01T03:56:27;22.52;;;12.77;;
76131;SDS011;64877;50.994;13.650;2023-03-01T03:58:53;21.50;;;11.60;;
76131;SDS011;64877;50.994;13.650;2023-03-01T04:01:18;19.65;;;10.73;;
76131;SDS011;64877;50.994;13.650;2023-03-01T04:03:44;24.67;;;11.57;;
76131;SDS011;64877;50.994;13.650;2023-03-01T04:06:12;21.70;;;11.95;;
76131;SDS011;64877;50.994;13.650;2023-03-01T04:08:38;26.02;;;12.00;;
76131;SDS011;64877;50.994;13.650;2023-03-01T04:11:04;23.02;;;12.13;;
76131;SDS011;64877;50.994;13.650;2023-03-01T04:13:49;19.88;;;10.93;;
76131;SDS011;64877;50.994;13.650;2023-03-01T04:16:16;24.88;;;11.48;;
76131;SDS011;64877;50.994;13.650;2023-03-01T04:18:42;18.42;;;9.98;;
76131;SDS011;64877;50.994;13.650;2023-03-01T04:21:08;19.67;;;10.13;;
76131;SDS011;64877;50.994;13.650;2023-03-01T04:23:35;23.95;;;12.80;;
76131;SDS011;64877;50.994;13.650;2023-03-01T04:26:00;27.27;;;12.48;;
76131;SDS011;64877;50.994;13.650;2023-03-01T04:28:33;21.80;;;11.48;;
76131;SDS011;64877;50.994;13.650;2023-03-01T04:31:09;25.08;;;11.82;;
76131;SDS011;64877;50.994;13.650;2023-03-01T04:33:41;25.13;;;12.07;;
76131;SDS011;64877;50.994;13.650;2023-03-01T04:36:07;20.13;;;11.38;;
76131;SDS011;64877;50.994;13.650;2023-03-01T04:38:34;23.73;;;12.10;;
76131;SDS011;64877;50.994;13.650;2023-03-01T04:41:02;25.35;;;13.73;;
76131;SDS011;64877;50.994;13.650;2023-03-01T04:43:28;27.38;;;13.73;;
76131;SDS011;64877;50.994;13.650;2023-03-01T04:45:54;26.30;;;12.38;;
76131;SDS011;64877;50.994;13.650;2023-03-01T04:48:19;22.63;;;12.45;;
76131;SDS011;64877;50.994;13.650;2023-03-01T04:50:45;23.15;;;11.70;;
76131;SDS011;64877;50.994;13.650;2023-03-01T04:53:10;21.58;;;11.60;;
76131;SDS011;64877;50.994;13.650;2023-03-01T04:55:35;24.73;;;11.93;;
76131;SDS011;64877;50.994;13.650;2023-03-01T04:58:01;22.23;;;11.35;;
76131;SDS011;64877;50.994;13.650;2023-03-01T05:00:26;22.73;;;11.85;;
76131;SDS011;64877;50.994;13.650;2023-03-01T05:02:53;27.15;;;13.55;;
76131;SDS011;64877;50.994;13.650;2023-03-01T05:05:26;21.25;;;11.93;;
76131;SDS011;64877;50.994;13.650;2023-03-01T05:07:54;21.33;;;11.95;;
76131;SDS011;64877;50.994;13.650;2023-03-01T05:10:21;24.13;;;11.75;;
76131;SDS011;64877;50.994;13.650;2023-03-01T05:12:47;24.67;;;11.57;;
76131;SDS011;64877;50.994;13.650;2023-03-01T05:15:13;22.30;;;11.00;;
76131;SDS011;64877;50.994;13.650;2023-03-01T05:17:39;22.67;;;10.85;;
76131;SDS011;64877;50.994;13.650;2023-03-01T05:20:04;22.45;;;11.70;;
76131;SDS011;64877;50.994;13.650;2023-03-01T05:22:36;27.90;;;14.38;;
76131;SDS011;64877;50.994;13.650;2023-03-01T05:25:02;25.85;;;11.98;;
76131;SDS011;64877;50.994;13.650;2023-03-01T05:27:28;24.35;;;12.85;;
76131;SDS011;64877;50.994;13.650;2023-03-01T05:29:54;23.33;;;12.15;;
76131;SDS011;64877;50.994;13.650;2023-03-01T05:32:20;28.38;;;12.70;;
76131;SDS011;64877;50.994;13.650;2023-03-01T05:34:45;25.45;;;12.70;;
76131;SDS011;64877;50.994;13.650;2023-03-01T05:37:11;24.27;;;12.23;;
76131;SDS011;64877;50.994;13.650;2023-03-01T05:39:39;24.10;;;11.63;;
76131;SDS011;64877;50.994;13.650;2023-03-01T05:42:04;21.90;;;12.18;;
76131;SDS011;64877;50.994;13.650;2023-03-01T05:44:30;25.70;;;11.82;;
76131;SDS011;64877;50.994;13.650;2023-03-01T05:46:55;22.63;;;11.27;;
76131;SDS011;64877;50.994;13.650;2023-03-01T05:49:21;23.88;;;12.15;;
76131;SDS011;64877;50.994;13.650;2023-03-01T05:51:51;21.77;;;11.13;;
76131;SDS011;64877;50.994;13.650;2023-03-01T05:54:18;29.77;;;13.35;;
76131;SDS011;64877;50.994;13.650;2023-03-01T05:56:44;27.23;;;13.07;;
76131;SDS011;64877;50.994;13.650;2023-03-01T05:59:10;21.33;;;12.13;;
76131;SDS011;64877;50.994;13.650;2023-03-01T06:01:36;23.25;;;11.90;;
76131;SDS011;64877;50.994;13.650;2023-03-01T06:04:02;23.38;;;10.65;;
76131;SDS011;64877;50.994;13.650;2023-03-01T06:06:29;24.73;;;12.02;;
76131;SDS011;64877;50.994;13.650;2023-03-01T06:08:55;22.50;;;11.80;;
76131;SDS011;64877;50.994;13.650;2023-03-01T06:11:20;30.65;;;13.68;;
76131;SDS011;64877;50.994;13.650;2023-03-01T06:13:46;22.00;;;11.05;;
76131;SDS011;64877;50.994;13.650;2023-03-01T06:16:12;26.60;;;12.25;;
76131;SDS011;64877;50.994;13.650;2023-03-01T06:18:38;26.83;;;12.00;;
76131;SDS011;64877;50.994;13.650;2023-03-01T06:21:04;25.58;;;12.07;;
76131;SDS011;64877;50.994;13.650;2023-03-01T06:23:30;21.92;;;12.13;;
76131;SDS011;64877;50.994;13.650;2023-03-01T06:25:56;21.77;;;11.70;;
76131;SDS011;64877;50.994;13.650;2023-03-01T06:28:21;23.40;;;12.23;;
76131;SDS011;64877;50.994;13.650;2023-03-01T06:30:47;25.35;;;13.13;;
76131;SDS011;64877;50.994;13.650;2023-03-01T06:33:13;28.33;;;14.32;;
76131;SDS011;64877;50.994;13.650;2023-03-01T06:35:38;27.17;;;15.30;;
76131;SDS011;64877;50.994;13.650;2023-03-01T06:38:04;27.85;;;13.38;;
76131;SDS011;64877;50.994;13.650;2023-03-01T06:40:30;33.75;;;15.80;;
76131;SDS011;64877;50.994;13.650;2023-03-01T06:42:57;26.02;;;14.82;;
76131;SDS011;64877;50.994;13.650;2023-03-01T06:45:23;30.60;;;15.25;;
76131;SDS011;64877;50.994;13.650;2023-03-01T06:47:48;28.15;;;14.30;;
76131;SDS011;64877;50.994;13.650;2023-03-01T06:50:14;30.88;;;15.48;;
76131;SDS011;64877;50.994;13.650;2023-03-01T06:52:41;31.30;;;14.68;;
76131;SDS011;64877;50.994;13.650;2023-03-01T06:55:06;41.67;;;20.55;;
76131;SDS011;64877;50.994;13.650;2023-03-01T06:57:32;29.40;;;15.57;;
76131;SDS011;64877;50.994;13.650;2023-03-01T06:59:58;26.70;;;14.48;;
76131;SDS011;64877;50.994;13.650;2023-03-01T07:02:23;26.45;;;14.10;;
76131;SDS011;64877;50.994;13.650;2023-03-01T07:04:50;28.55;;;14.27;;
76131;SDS011;64877;50.994;13.650;2023-03-01T07:07:15;28.58;;;14.10;;
76131;SDS011;64877;50.994;13.650;2023-03-01T07:09:43;35.22;;;14.07;;
76131;SDS011;64877;50.994;13.650;2023-03-01T07:12:09;31.00;;;15.13;;
76131;SDS011;64877;50.994;13.650;2023-03-01T07:14:34;27.67;;;15.35;;
76131;SDS011;64877;50.994;13.650;2023-03-01T07:16:59;29.92;;;15.88;;
76131;SDS011;64877;50.994;13.650;2023-03-01T07:19:25;33.17;;;15.98;;
76131;SDS011;64877;50.994;13.650;2023-03-01T07:21:50;28.83;;;15.95;;
76131;SDS011;64877;50.994;13.650;2023-03-01T07:24:16;33.20;;;17.58;;
76131;SDS011;64877;50.994;13.650;2023-03-01T07:26:41;30.27;;;15.43;;
76131;SDS011;64877;50.994;13.650;2023-03-01T07:29:07;28.67;;;16.15;;
76131;SDS011;64877;50.994;13.650;2023-03-01T07:31:34;32.67;;;17.42;;
76131;SDS011;64877;50.994;13.650;2023-03-01T07:34:00;38.03;;;16.30;;
76131;SDS011;64877;50.994;13.650;2023-03-01T07:36:25;26.30;;;14.63;;
76131;SDS011;64877;50.994;13.650;2023-03-01T07:38:50;26.10;;;14.55;;
76131;SDS011;64877;50.994;13.650;2023-03-01T07:41:16;29.00;;;14.52;;
76131;SDS011;64877;50.994;13.650;2023-03-01T07:43:42;28.35;;;14.40;;
76131;SDS011;64877;50.994;13.650;2023-03-01T07:46:08;26.33;;;14.55;;
76131;SDS011;64877;50.994;13.650;2023-03-01T07:48:33;31.17;;;15.05;;
76131;SDS011;64877;50.994;13.650;2023-03-01T07:50:59;26.40;;;15.88;;
76131;SDS011;64877;50.994;13.650;2023-03-01T07:53:25;29.90;;;17.05;;
76131;SDS011;64877;50.994;13.650;2023-03-01T07:55:59;27.90;;;15.98;;
76131;SDS011;64877;50.994;13.650;2023-03-01T07:58:36;30.17;;;16.45;;
76131;SDS011;64877;50.994;13.650;2023-03-01T08:01:03;33.35;;;17.83;;
76131;SDS011;64877;50.994;13.650;2023-03-01T08:03:29;34.65;;;17.73;;
76131;SDS011;64877;50.994;13.650;2023-03-01T08:05:55;33.50;;;19.25;;
76131;SDS011;64877;50.994;13.650;2023-03-01T08:08:20;30.92;;;16.90;;
76131;SDS011;64877;50.994;13.650;2023-03-01T08:10:45;28.73;;;15.88;;
76131;SDS011;64877;50.994;13.650;2023-03-01T08:13:11;30.25;;;14.90;;
76131;SDS011;64877;50.994;13.650;2023-03-01T08:15:36;27.42;;;16.25;;
76131;SDS011;64877;50.994;13.650;2023-03-01T08:18:01;29.90;;;16.13;;
76131;SDS011;64877;50.994;13.650;2023-03-01T08:20:27;28.20;;;15.43;;
76131;SDS011;64877;50.994;13.650;2023-03-01T08:22:52;27.17;;;14.57;;
76131;SDS011;64877;50.994;13.650;2023-03-01T08:25:18;27.45;;;15.75;;
76131;SDS011;64877;50.994;13.650;2023-03-01T08:27:43;32.97;;;16.45;;
76131;SDS011;64877;50.994;13.650;2023-03-01T08:30:08;30.52;;;17.48;;
76131;SDS011;64877;50.994;13.650;2023-03-01T08:32:35;29.45;;;16.88;;
76131;SDS011;64877;50.994;13.650;2023-03-01T08:35:02;28.55;;;16.92;;
76131;SDS011;64877;50.994;13.650;2023-03-01T08:37:28;27.92;;;17.40;;
76131;SDS011;64877;50.994;13.650;2023-03-01T08:39:55;28.38;;;15.82;;
76131;SDS011;64877;50.994;13.650;2023-03-01T08:42:21;31.27;;;17.48;;
76131;SDS011;64877;50.994;13.650;2023-03-01T08:44:46;28.10;;;16.95;;
76131;SDS011;64877;50.994;13.650;2023-03-01T08:47:12;29.35;;;16.67;;
76131;SDS011;64877;50.994;13.650;2023-03-01T08:49:37;28.50;;;17.13;;
76131;SDS011;64877;50.994;13.650;2023-03-01T08:52:03;31.90;;;17.08;;
76131;SDS011;64877;50.994;13.650;2023-03-01T08:54:28;33.13;;;18.08;;
76131;SDS011;64877;50.994;13.650;2023-03-01T08:56:54;32.65;;;17.92;;
76131;SDS011;64877;50.994;13.650;2023-03-01T08:59:19;33.33;;;18.33;;
76131;SDS011;64877;50.994;13.650;2023-03-01T09:01:45;34.38;;;18.75;;
76131;SDS011;64877;50.994;13.650;2023-03-01T09:04:11;32.35;;;18.58;;
76131;SDS011;64877;50.994;13.650;2023-03-01T09:06:40;32.40;;;17.30;;
76131;SDS011;64877;50.994;13.650;2023-03-01T09:09:05;35.35;;;17.98;;
76131;SDS011;64877;50.994;13.650;2023-03-01T09:11:32;40.72;;;17.38;;
76131;SDS011;64877;50.994;13.650;2023-03-01T09:13:58;37.92;;;19.17;;
76131;SDS011;64877;50.994;13.650;2023-03-01T09:16:23;32.92;;;17.20;;
76131;SDS011;64877;50.994;13.650;2023-03-01T09:18:50;36.67;;;18.50;;
76131;SDS011;64877;50.994;13.650;2023-03-01T09:21:16;35.55;;;18.83;;
76131;SDS011;64877;50.994;13.650;2023-03-01T09:23:45;28.10;;;15.07;;
76131;SDS011;64877;50.994;13.650;2023-03-01T09:26:12;25.17;;;14.30;;
76131;SDS011;64877;50.994;13.650;2023-03-01T09:28:41;27.23;;;15.00;;
76131;SDS011;64877;50.994;13.650;2023-03-01T09:31:07;26.90;;;13.95;;
76131;SDS011;64877;50.994;13.650;2023-03-01T09:33:32;27.35;;;14.57;;
76131;SDS011;64877;50.994;13.650;2023-03-01T09:36:02;25.17;;;14.00;;
76131;SDS011;64877;50.994;13.650;2023-03-01T09:38:29;28.92;;;14.93;;
76131;SDS011;64877;50.994;13.650;2023-03-01T09:40:55;27.73;;;14.70;;
76131;SDS011;64877;50.994;13.650;2023-03-01T09:46:05;26.20;;;14.70;;
76131;SDS011;64877;50.994;13.650;2023-03-01T09:51:34;27.25;;;14.20;;
76131;SDS011;64877;50.994;13.650;2023-03-01T09:54:01;25.23;;;14.63;;
76131;SDS011;64877;50.994;13.650;2023-03-01T09:56:39;33.65;;;14.35;;
76131;SDS011;64877;50.994;13.650;2023-03-01T10:04:49;27.50;;;15.40;;
76131;SDS011;64877;50.994;13.650;2023-03-01T10:09:53;28.85;;;15.30;;
76131;SDS011;64877;50.994;13.650;2023-03-01T10:12:31;25.55;;;13.40;;
76131;SDS011;64877;50.994;13.650;2023-03-01T10:15:08;25.17;;;13.40;;
76131;SDS011;64877;50.994;13.650;2023-03-01T10:17:48;30.75;;;15.05;;
76131;SDS011;64877;50.994;13.650;2023-03-01T10:20:25;31.08;;;16.75;;
76131;SDS011;64877;50.994;13.650;2023-03-01T10:22:54;27.00;;;14.80;;
76131;SDS011;64877;50.994;13.650;2023-03-01T10:30:48;23.23;;;13.70;;
76131;SDS011;64877;50.994;13.650;2023-03-01T10:33:21;29.27;;;15.52;;
76131;SDS011;64877;50.994;13.650;2023-03-01T10:36:05;32.05;;;15.15;;
76131;SDS011;64877;50.994;13.650;2023-03-01T10:38:33;31.98;;;15.50;;
76131;SDS011;64877;50.994;13.650;2023-03-01T10:41:23;30.27;;;14.95;;
76131;SDS011;64877;50.994;13.650;2023-03-01T10:43:50;28.48;;;14.50;;
76131;SDS011;64877;50.994;13.650;2023-03-01T10:51:46;27.95;;;13.93;;
76131;SDS011;64877;50.994;13.650;2023-03-01T10:54:26;25.45;;;14.20;;
76131;SDS011;64877;50.994;13.650;2023-03-01T10:57:03;30.27;;;14.40;;
76131;SDS011;64877;50.994;13.650;2023-03-01T10:59:37;23.85;;;13.43;;
76131;SDS011;64877;50.994;13.650;2023-03-01T11:02:23;28.58;;;14.35;;
76131;SDS011;64877;50.994;13.650;2023-03-01T11:04:58;30.02;;;15.25;;
76131;SDS011;64877;50.994;13.650;2023-03-01T11:10:20;25.70;;;14.90;;
76131;SDS011;64877;50.994;13.650;2023-03-01T11:12:51;27.55;;;14.75;;
76131;SDS011;64877;50.994;13.650;2023-03-01T11:15:21;26.80;;;15.07;;
76131;SDS011;64877;50.994;13.650;2023-03-01T11:17:50;23.90;;;14.23;;
76131;SDS011;64877;50.994;13.650;2023-03-01T11:20:18;30.50;;;14.02;;
76131;SDS011;64877;50.994;13.650;2023-03-01T11:23:01;31.90;;;14.50;;
76131;SDS011;64877;50.994;13.650;2023-03-01T11:25:33;29.38;;;15.90;;
76131;SDS011;64877;50.994;13.650;2023-03-01T11:28:02;26.60;;;13.38;;
76131;SDS011;64877;50.994;13.650;2023-03-01T11:30:39;25.98;;;13.95;;
76131;SDS011;64877;50.994;13.650;2023-03-01T11:36:03;27.50;;;14.43;;
76131;SDS011;64877;50.994;13.650;2023-03-01T11:38:34;26.75;;;14.07;;
76131;SDS011;64877;50.994;13.650;2023-03-01T11:43:47;28.05;;;14.48;;
76131;SDS011;64877;50.994;13.650;2023-03-01T11:54:42;26.58;;;13.32;;
76131;SDS011;64877;50.994;13.650;2023-03-01T12:19:43;18.48;;;10.65;;
76131;SDS011;64877;50.994;13.650;2023-03-01T12:28:10;18.05;;;10.13;;
76131;SDS011;64877;50.994;13.650;2023-03-01T12:38:59;19.48;;;10.30;;
76131;SDS011;64877;50.994;13.650;2023-03-01T12:41:33;14.45;;;8.38;;
76131;SDS011;64877;50.994;13.650;2023-03-01T12:47:05;19.30;;;8.90;;
76131;SDS011;64877;50.994;13.650;2023-03-01T12:49:49;20.55;;;9.25;;
76131;SDS011;64877;50.994;13.650;2023-03-01T12:54:57;14.68;;;8.60;;
76131;SDS011;64877;50.994;13.650;2023-03-01T12:57:30;16.50;;;9.13;;
76131;SDS011;64877;50.994;13.650;2023-03-01T13:08:14;18.80;;;10.27;;
76131;SDS011;64877;50.994;13.650;2023-03-01T13:10:49;16.98;;;9.80;;
76131;SDS011;64877;50.994;13.650;2023-03-01T13:13:20;19.58;;;10.52;;
76131;SDS011;64877;50.994;13.650;2023-03-01T13:15:48;16.88;;;9.30;;
76131;SDS011;64877;50.994;13.650;2023-03-01T13:34:06;23.48;;;11.27;;
76131;SDS011;64877;50.994;13.650;2023-03-01T13:36:50;23.35;;;11.80;;
76131;SDS011;64877;50.994;13.650;2023-03-01T13:39:31;20.25;;;10.75;;
76131;SDS011;64877;50.994;13.650;2023-03-01T13:42:25;23.23;;;11.63;;
76131;SDS011;64877;50.994;13.650;2023-03-01T13:44:52;19.00;;;10.40;;
76131;SDS011;64877;50.994;13.650;2023-03-01T13:47:17;23.05;;;11.93;;
76131;SDS011;64877;50.994;13.650;2023-03-01T13:54:55;28.23;;;12.77;;
76131;SDS011;64877;50.994;13.650;2023-03-01T13:57:24;22.77;;;12.75;;
76131;SDS011;64877;50.994;13.650;2023-03-01T13:59:54;21.80;;;11.60;;
76131;SDS011;64877;50.994;13.650;2023-03-01T14:02:20;21.38;;;11.70;;
76131;SDS011;64877;50.994;13.650;2023-03-01T14:04:46;22.98;;;12.18;;
76131;SDS011;64877;50.994;13.650;2023-03-01T14:07:22;22.90;;;11.80;;
76131;SDS011;64877;50.994;13.650;2023-03-01T14:09:55;21.10;;;10.93;;
76131;SDS011;64877;50.994;13.650;2023-03-01T14:20:42;18.98;;;10.73;;
76131;SDS011;64877;50.994;13.650;2023-03-01T14:23:17;18.33;;;10.70;;
76131;SDS011;64877;50.994;13.650;2023-03-01T14:25:51;19.10;;;9.68;;
76131;SDS011;64877;50.994;13.650;2023-03-01T14:35:53;18.75;;;10.02;;
76131;SDS011;64877;50.994;13.650;2023-03-01T14:38:45;23.70;;;11.30;;
76131;SDS011;64877;50.994;13.650;2023-03-01T14:41:22;22.83;;;11.20;;
76131;SDS011;64877;50.994;13.650;2023-03-01T14:43:51;20.05;;;11.13;;
76131;SDS011;64877;50.994;13.650;2023-03-01T14:46:24;24.25;;;12.18;;
76131;SDS011;64877;50.994;13.650;2023-03-01T14:48:56;19.20;;;11.05;;
76131;SDS011;64877;50.994;13.650;2023-03-01T14:51:26;25.58;;;11.50;;
76131;SDS011;64877;50.994;13.650;2023-03-01T14:53:51;23.75;;;11.68;;
76131;SDS011;64877;50.994;13.650;2023-03-01T14:56:18;22.90;;;11.55;;
76131;SDS011;64877;50.994;13.650;2023-03-01T14:58:44;20.48;;;11.68;;
76131;SDS011;64877;50.994;13.650;2023-03-01T15:01:13;19.10;;;11.38;;
76131;SDS011;64877;50.994;13.650;2023-03-01T15:03:44;20.63;;;11.73;;
76131;SDS011;64877;50.994;13.650;2023-03-01T15:06:14;23.73;;;12.50;;
76131;SDS011;64877;50.994;13.650;2023-03-01T15:08:44;21.98;;;11.40;;
76131;SDS011;64877;50.994;13.650;2023-03-01T15:13:38;25.77;;;11.80;;
76131;SDS011;64877;50.994;13.650;2023-03-01T15:16:05;21.55;;;11.50;;
76131;SDS011;64877;50.994;13.650;2023-03-01T15:18:49;20.77;;;11.82;;
76131;SDS011;64877;50.994;13.650;2023-03-01T15:21:18;20.10;;;11.32;;
76131;SDS011;64877;50.994;13.650;2023-03-01T15:26:52;20.63;;;11.65;;
76131;SDS011;64877;50.994;13.650;2023-03-01T15:29:23;23.05;;;11.88;;
76131;SDS011;64877;50.994;13.650;2023-03-01T15:31:58;25.00;;;12.48;;
76131;SDS011;64877;50.994;13.650;2023-03-01T15:34:38;22.30;;;12.07;;
76131;SDS011;64877;50.994;13.650;2023-03-01T15:37:04;20.10;;;11.48;;
76131;SDS011;64877;50.994;13.650;2023-03-01T15:39:56;22.60;;;11.82;;
76131;SDS011;64877;50.994;13.650;2023-03-01T15:45:06;22.42;;;12.13;;
76131;SDS011;64877;50.994;13.650;2023-03-01T15:47:46;26.77;;;12.48;;
76131;SDS011;64877;50.994;13.650;2023-03-01T15:52:50;24.17;;;12.77;;
76131;SDS011;64877;50.994;13.650;2023-03-01T15:57:43;26.08;;;12.60;;
76131;SDS011;64877;50.994;13.650;2023-03-01T16:00:10;25.45;;;13.13;;
76131;SDS011;64877;50.994;13.650;2023-03-01T16:02:38;23.27;;;12.85;;
76131;SDS011;64877;50.994;13.650;2023-03-01T16:05:04;19.02;;;10.65;;
76131;SDS011;64877;50.994;13.650;2023-03-01T16:07:30;27.33;;;12.38;;
76131;SDS011;64877;50.994;13.650;2023-03-01T16:09:56;23.70;;;12.52;;
76131;SDS011;64877;50.994;13.650;2023-03-01T16:12:21;24.85;;;12.60;;
76131;SDS011;64877;50.994;13.650;2023-03-01T16:14:49;20.70;;;12.20;;
76131;SDS011;64877;50.994;13.650;2023-03-01T16:17:14;20.98;;;10.98;;
76131;SDS011;64877;50.994;13.650;2023-03-01T16:19:40;21.55;;;11.65;;
76131;SDS011;64877;50.994;13.650;2023-03-01T16:22:06;22.88;;;11.80;;
76131;SDS011;64877;50.994;13.650;2023-03-01T16:24:32;22.23;;;11.77;;
76131;SDS011;64877;50.994;13.650;2023-03-01T16:26:57;23.38;;;12.02;;
76131;SDS011;64877;50.994;13.650;2023-03-01T16:29:23;21.88;;;12.48;;
76131;SDS011;64877;50.994;13.650;2023-03-01T16:31:48;21.33;;;11.52;;
76131;SDS011;64877;50.994;13.650;2023-03-01T16:34:13;22.55;;;12.52;;
76131;SDS011;64877;50.994;13.650;2023-03-01T16:36:39;22.70;;;10.90;;
76131;SDS011;64877;50.994;13.650;2023-03-01T16:39:06;23.77;;;13.20;;
76131;SDS011;64877;50.994;13.650;2023-03-01T16:41:32;28.20;;;12.80;;
76131;SDS011;64877;50.994;13.650;2023-03-01T16:43:57;39.10;;;18.05;;
76131;SDS011;64877;50.994;13.650;2023-03-01T16:46:24;40.35;;;19.38;;
76131;SDS011;64877;50.994;13.650;2023-03-01T16:48:53;38.78;;;18.85;;
76131;SDS011;64877;50.994;13.650;2023-03-01T16:51:19;37.95;;;19.00;;